createdAt,value
2022-08-20T00:01:42.846Z,98201.00
2022-08-20T00:04:30.604Z,98218.00
2022-08-20T00:07:18.577Z,98224.00
2022-08-20T00:10:09.557Z,98229.00
2022-08-20T00:12:57.192Z,98238.00
2022-08-20T00:15:46.277Z,98234.00
2022-08-20T00:18:37.157Z,98247.00
2022-08-20T00:21:25.839Z,98243.00
2022-08-20T00:24:15.440Z,98248.00
2022-08-20T00:27:03.047Z,98253.00
2022-08-20T00:29:50.633Z,98247.00
2022-08-20T00:32:52.383Z,98236.00
2022-08-20T00:35:45.782Z,98239.00
2022-08-20T00:38:36.398Z,98243.00
2022-08-20T00:41:27.588Z,98254.00
2022-08-20T00:44:22.818Z,98243.00
2022-08-20T00:47:10.312Z,98241.00
2022-08-20T00:49:57.817Z,98244.00
2022-08-20T00:52:50.868Z,98241.00
2022-08-20T00:55:40.247Z,98236.00
2022-08-20T00:58:29.657Z,98232.00
2022-08-20T01:01:19.395Z,98234.00
2022-08-20T01:04:07.038Z,98237.00
2022-08-20T01:06:55.532Z,98250.00
2022-08-20T01:09:58.094Z,98243.00
2022-08-20T01:12:55.652Z,98241.00
2022-08-20T01:15:51.788Z,98240.00
2022-08-20T01:18:40.011Z,98240.00
2022-08-20T01:21:28.595Z,98234.00
2022-08-20T01:24:43.351Z,98233.00
2022-08-20T01:27:33.673Z,98222.00
2022-08-20T01:30:32.907Z,98230.00
2022-08-20T01:33:22.556Z,98223.00
2022-08-20T01:36:12.838Z,98223.00
2022-08-20T01:39:02.061Z,98230.00
2022-08-20T01:42:15.566Z,98224.00
2022-08-20T01:45:05.227Z,98220.00
2022-08-20T01:47:53.387Z,98224.00
2022-08-20T01:50:53.388Z,98236.00
2022-08-20T01:53:48.911Z,98229.00
2022-08-20T01:57:10.523Z,98231.00
2022-08-20T01:59:58.101Z,98229.00
2022-08-20T02:02:45.737Z,98232.00
2022-08-20T02:05:34.416Z,98224.00
2022-08-20T02:08:22.548Z,98214.00
2022-08-20T02:11:12.991Z,98211.00
2022-08-20T02:14:01.609Z,98215.00
2022-08-20T02:16:54.931Z,98216.00
2022-08-20T02:19:51.046Z,98209.00
2022-08-20T02:22:56.562Z,98207.00
2022-08-20T02:25:47.869Z,98211.00
2022-08-20T02:28:35.506Z,98204.00
2022-08-20T02:31:25.168Z,98206.00
2022-08-20T02:34:22.882Z,98203.00
2022-08-20T02:37:11.727Z,98201.00
2022-08-20T02:39:59.842Z,98198.00
2022-08-20T02:42:47.923Z,98191.00
2022-08-20T02:45:37.451Z,98194.00
2022-08-20T02:48:25.367Z,98186.00
2022-08-20T02:51:13.050Z,98184.00
2022-08-20T02:54:00.992Z,98174.00
2022-08-20T02:56:49.677Z,98180.00
2022-08-20T02:59:37.167Z,98174.00
2022-08-20T03:02:25.172Z,98174.00
2022-08-20T03:05:14.293Z,98175.00
2022-08-20T03:08:01.872Z,98170.00
2022-08-20T03:10:52.097Z,98177.00
2022-08-20T03:13:39.647Z,98175.00
2022-08-20T03:16:27.257Z,98176.00
2022-08-20T03:19:16.087Z,98171.00
2022-08-20T03:22:03.884Z,98175.00
2022-08-20T03:24:51.425Z,98180.00
2022-08-20T03:27:42.867Z,98177.00
2022-08-20T03:30:34.214Z,98181.00
2022-08-20T03:33:22.207Z,98183.00
2022-08-20T03:36:10.187Z,98194.00
2022-08-20T03:39:04.647Z,98192.00
2022-08-20T03:41:52.253Z,98205.00
2022-08-20T03:44:39.747Z,98210.00
2022-08-20T03:47:28.652Z,98212.00
2022-08-20T03:50:23.585Z,98216.00
2022-08-20T03:53:14.839Z,98211.00
2022-08-20T03:56:06.761Z,98222.00
2022-08-20T03:58:55.118Z,98227.00
2022-08-20T04:01:46.016Z,98222.00
2022-08-20T04:04:34.392Z,98233.00
2022-08-20T04:07:25.836Z,98225.00
2022-08-20T04:10:14.558Z,98234.00
2022-08-20T04:13:02.706Z,98228.00
2022-08-20T04:15:55.290Z,98233.00
2022-08-20T04:19:01.492Z,98232.00
2022-08-20T04:21:49.707Z,98238.00
2022-08-20T04:24:37.371Z,98240.00
2022-08-20T04:27:24.917Z,98236.00
2022-08-20T04:30:16.794Z,98239.00
2022-08-20T04:33:04.494Z,98236.00
2022-08-20T04:35:53.048Z,98240.00
2022-08-20T04:38:48.446Z,98242.00
2022-08-20T04:41:38.698Z,98252.00
2022-08-20T04:44:26.343Z,98242.00
2022-08-20T04:47:25.377Z,98253.00
2022-08-20T04:50:22.963Z,98247.00
2022-08-20T04:53:13.809Z,98249.00
2022-08-20T04:56:03.677Z,98242.00
2022-08-20T04:58:52.824Z,98252.00
2022-08-20T05:01:40.362Z,98256.00
2022-08-20T05:04:27.912Z,98258.00
2022-08-20T05:07:19.092Z,98263.00
2022-08-20T05:10:11.268Z,98261.00
2022-08-20T05:12:59.268Z,98266.00
2022-08-20T05:15:48.703Z,98263.00
2022-08-20T05:18:37.284Z,98265.00
2022-08-20T05:21:24.832Z,98260.00
2022-08-20T05:24:13.030Z,98261.00
2022-08-20T05:27:01.413Z,98254.00
2022-08-20T05:29:48.903Z,98255.00
2022-08-20T05:32:44.338Z,98247.00
2022-08-20T05:35:35.972Z,98243.00
2022-08-20T05:38:28.173Z,98243.00
2022-08-20T05:41:29.125Z,98239.00
2022-08-20T05:44:18.268Z,98244.00
2022-08-20T05:47:06.668Z,98245.00
2022-08-20T05:49:54.445Z,98244.00
2022-08-20T05:52:42.925Z,98252.00
2022-08-20T05:55:32.792Z,98264.00
2022-08-20T05:58:26.481Z,98271.00
2022-08-20T06:01:14.044Z,98280.00
2022-08-20T06:04:20.406Z,98284.00
2022-08-20T06:07:11.401Z,98289.00
2022-08-20T06:10:00.613Z,98290.00
2022-08-20T06:12:48.148Z,98273.00
2022-08-20T06:15:36.280Z,98292.00
2022-08-20T06:18:27.609Z,98274.00
2022-08-20T06:21:16.233Z,98287.00
2022-08-20T06:24:04.367Z,98286.00
2022-08-20T06:27:04.788Z,98297.00
2022-08-20T06:29:54.016Z,98294.00
2022-08-20T06:32:42.132Z,98298.00
2022-08-20T06:35:30.137Z,98299.00
2022-08-20T06:38:17.872Z,98303.00
2022-08-20T06:41:06.053Z,98306.00
2022-08-20T06:43:54.033Z,98312.00
2022-08-20T06:46:42.048Z,98318.00
2022-08-20T06:49:35.297Z,98320.00
2022-08-20T06:52:29.941Z,98314.00
2022-08-20T06:55:30.734Z,98325.00
2022-08-20T06:58:36.774Z,98331.00
2022-08-20T07:01:26.523Z,98339.00
2022-08-20T07:04:16.047Z,98335.00
2022-08-20T07:07:04.397Z,98347.00
2022-08-20T07:09:59.788Z,98342.00
2022-08-20T07:12:47.612Z,98346.00
2022-08-20T07:15:35.152Z,98348.00
2022-08-20T07:18:28.022Z,98357.00
2022-08-20T07:21:17.564Z,98356.00
2022-08-20T07:24:05.610Z,98347.00
2022-08-20T07:26:53.137Z,98355.00
2022-08-20T07:30:03.206Z,98352.00
2022-08-20T07:32:50.767Z,98346.00
2022-08-20T07:35:38.343Z,98355.00
2022-08-20T07:38:29.398Z,98352.00
2022-08-20T07:41:17.233Z,98352.00
2022-08-20T07:44:05.113Z,98353.00
2022-08-20T07:46:52.631Z,98366.00
2022-08-20T07:49:41.037Z,98363.00
2022-08-20T07:52:28.617Z,98367.00
2022-08-20T07:55:17.602Z,98362.00
2022-08-20T07:58:13.893Z,98361.00
2022-08-20T08:01:01.803Z,98360.00
2022-08-20T08:03:50.744Z,98359.00
2022-08-20T08:06:38.503Z,98369.00
2022-08-20T08:09:28.453Z,98364.00
2022-08-20T08:12:17.339Z,98366.00
2022-08-20T08:15:12.893Z,98362.00
2022-08-20T08:18:09.178Z,98361.00
2022-08-20T08:20:57.710Z,98367.00
2022-08-20T08:23:45.812Z,98368.00
2022-08-20T08:26:33.544Z,98364.00
2022-08-20T08:29:21.068Z,98366.00
2022-08-20T08:32:08.558Z,98372.00
2022-08-20T08:34:56.057Z,98374.00
2022-08-20T08:37:44.088Z,98383.00
2022-08-20T08:40:33.888Z,98374.00
2022-08-20T08:43:25.723Z,98376.00
2022-08-20T08:46:24.643Z,98380.00
2022-08-20T08:49:18.472Z,98372.00
2022-08-20T08:52:21.896Z,98367.00
2022-08-20T08:55:20.727Z,98374.00
2022-08-20T08:58:17.160Z,98379.00
2022-08-20T09:01:53.942Z,98377.00
2022-08-20T09:04:36.267Z,98373.00
2022-08-20T09:07:30.217Z,98377.00
2022-08-20T09:10:22.961Z,98372.00
2022-08-20T09:13:11.853Z,98376.00
2022-08-20T09:15:59.853Z,98379.00
2022-08-20T09:18:47.317Z,98394.00
2022-08-20T09:21:34.831Z,98384.00
2022-08-20T09:24:22.458Z,98390.00
2022-08-20T09:27:11.054Z,98390.00
2022-08-20T09:29:58.522Z,98394.00
2022-08-20T09:32:46.272Z,98393.00
2022-08-20T09:35:34.579Z,98396.00
2022-08-20T09:38:22.212Z,98410.00
2022-08-20T09:41:09.683Z,98400.00
2022-08-20T09:43:57.278Z,98409.00
2022-08-20T09:46:44.853Z,98410.00
2022-08-20T09:49:32.852Z,98419.00
2022-08-20T09:52:50.557Z,98422.00
2022-08-20T09:55:52.357Z,98425.00
2022-08-20T09:58:54.599Z,98423.00
2022-08-20T10:01:42.548Z,98421.00
2022-08-20T10:04:30.350Z,98415.00
2022-08-20T10:07:17.992Z,98413.00
2022-08-20T10:10:08.507Z,98420.00
2022-08-20T10:12:56.033Z,98423.00
2022-08-20T10:15:43.787Z,98428.00
2022-08-20T10:18:32.088Z,98422.00
2022-08-20T10:21:19.819Z,98421.00
2022-08-20T10:24:07.514Z,98422.00
2022-08-20T10:26:59.017Z,98426.00
2022-08-20T10:29:47.131Z,98427.00
2022-08-20T10:32:35.002Z,98415.00
2022-08-20T10:35:22.723Z,98414.00
2022-08-20T10:38:10.574Z,98410.00
2022-08-20T10:40:58.188Z,98418.00
2022-08-20T10:43:46.027Z,98410.00
2022-08-20T10:46:37.977Z,98409.00
2022-08-20T10:49:25.508Z,98409.00
2022-08-20T10:52:13.092Z,98416.00
2022-08-20T10:55:04.350Z,98414.00
2022-08-20T10:57:52.036Z,98422.00
2022-08-20T11:00:41.192Z,98423.00
2022-08-20T11:03:28.787Z,98421.00
2022-08-20T11:06:16.379Z,98422.00
2022-08-20T11:09:04.019Z,98421.00
2022-08-20T11:11:54.762Z,98413.00
2022-08-20T11:14:42.483Z,98425.00
2022-08-20T11:17:37.126Z,98429.00
2022-08-20T11:20:26.797Z,98424.00
2022-08-20T11:23:14.287Z,98427.00
2022-08-20T11:26:01.875Z,98430.00
2022-08-20T11:28:49.617Z,98430.00
2022-08-20T11:31:37.222Z,98425.00
2022-08-20T11:34:24.828Z,98426.00
2022-08-20T11:37:14.808Z,98422.00
2022-08-20T11:40:02.882Z,98412.00
2022-08-20T11:43:13.141Z,98414.00
2022-08-20T11:45:58.782Z,98416.00
2022-08-20T11:48:46.773Z,98424.00
2022-08-20T11:51:39.099Z,98430.00
2022-08-20T11:54:40.681Z,98426.00
2022-08-20T11:57:32.047Z,98431.00
2022-08-20T12:00:33.188Z,98431.00
2022-08-20T12:03:21.273Z,98429.00
2022-08-20T12:06:09.254Z,98436.00
2022-08-20T12:08:56.917Z,98436.00
2022-08-20T12:11:46.250Z,98439.00
2022-08-20T12:14:34.387Z,98433.00
2022-08-20T12:17:28.669Z,98439.00
2022-08-20T12:20:16.975Z,98440.00
2022-08-20T12:23:05.089Z,98433.00
2022-08-20T12:25:52.656Z,98426.00
2022-08-20T12:28:40.158Z,98434.00
2022-08-20T12:31:27.743Z,98435.00
2022-08-20T12:34:16.481Z,98432.00
2022-08-20T12:37:15.756Z,98428.00
2022-08-20T12:40:09.237Z,98436.00
2022-08-20T12:42:57.157Z,98434.00
2022-08-20T12:45:45.272Z,98437.00
2022-08-20T12:48:32.768Z,98436.00
2022-08-20T12:51:20.217Z,98438.00
2022-08-20T12:54:07.700Z,98441.00
2022-08-20T12:56:55.217Z,98447.00
2022-08-20T12:59:42.912Z,98442.00
2022-08-20T13:02:30.587Z,98434.00
2022-08-20T13:05:18.538Z,98433.00
2022-08-20T13:08:12.348Z,98435.00
2022-08-20T13:10:59.843Z,98426.00
2022-08-20T13:13:47.965Z,98432.00
2022-08-20T13:16:35.899Z,98438.00
2022-08-20T13:19:23.749Z,98440.00
2022-08-20T13:22:13.331Z,98444.00
2022-08-20T13:25:00.857Z,98442.00
2022-08-20T13:27:49.248Z,98442.00
2022-08-20T13:30:41.064Z,98441.00
2022-08-20T13:33:31.724Z,98447.00
2022-08-20T13:36:19.313Z,98436.00
2022-08-20T13:39:07.772Z,98443.00
2022-08-20T13:41:55.292Z,98453.00
2022-08-20T13:44:43.228Z,98440.00
2022-08-20T13:47:35.860Z,98440.00
2022-08-20T13:50:25.864Z,98440.00
2022-08-20T13:53:13.358Z,98438.00
2022-08-20T13:56:01.279Z,98430.00
2022-08-20T13:58:48.963Z,98437.00
2022-08-20T14:01:40.674Z,98436.00
2022-08-20T14:04:28.167Z,98425.00
2022-08-20T14:07:23.314Z,98419.00
2022-08-20T14:10:26.411Z,98422.00
2022-08-20T14:13:15.759Z,98414.00
2022-08-20T14:16:03.718Z,98418.00
2022-08-20T14:18:53.018Z,98419.00
2022-08-20T14:21:40.657Z,98414.00
2022-08-20T14:24:28.143Z,98419.00
2022-08-20T14:27:20.208Z,98429.00
2022-08-20T14:30:13.073Z,98424.00
2022-08-20T14:33:00.594Z,98423.00
2022-08-20T14:35:48.141Z,98428.00
2022-08-20T14:38:35.656Z,98433.00
2022-08-20T14:41:23.187Z,98426.00
2022-08-20T14:44:10.663Z,98429.00
2022-08-20T14:47:09.269Z,98429.00
2022-08-20T14:50:05.378Z,98437.00
2022-08-20T14:52:54.263Z,98437.00
2022-08-20T14:55:42.046Z,98443.00
2022-08-20T14:58:29.554Z,98445.00
2022-08-20T15:01:17.151Z,98443.00
2022-08-20T15:04:04.732Z,98439.00
2022-08-20T15:06:54.648Z,98446.00
2022-08-20T15:09:42.383Z,98454.00
2022-08-20T15:12:29.983Z,98449.00
2022-08-20T15:15:19.258Z,98445.00
2022-08-20T15:18:08.158Z,98444.00
2022-08-20T15:20:55.688Z,98449.00
2022-08-20T15:23:43.138Z,98442.00
2022-08-20T15:26:30.809Z,98452.00
2022-08-20T15:29:23.422Z,98450.00
2022-08-20T15:32:12.036Z,98455.00
2022-08-20T15:34:59.607Z,98457.00
2022-08-20T15:37:50.803Z,98461.00
2022-08-20T15:40:38.559Z,98464.00
2022-08-20T15:43:26.212Z,98464.00
2022-08-20T15:46:13.802Z,98458.00
2022-08-20T15:49:01.484Z,98467.00
2022-08-20T15:51:50.237Z,98462.00
2022-08-20T15:54:39.065Z,98461.00
2022-08-20T15:57:46.099Z,98475.00
2022-08-20T16:00:51.312Z,98476.00
2022-08-20T16:04:11.138Z,98475.00
2022-08-20T16:07:07.542Z,98469.00
2022-08-20T16:11:01.237Z,98475.00
2022-08-20T16:14:17.788Z,98476.00
2022-08-20T16:17:17.936Z,98479.00
2022-08-20T16:20:24.768Z,98469.00
2022-08-20T16:23:31.692Z,98472.00
2022-08-20T16:26:37.668Z,98474.00
2022-08-20T16:29:56.703Z,98476.00
2022-08-20T16:32:53.273Z,98481.00
2022-08-20T16:35:57.299Z,98480.00
2022-08-20T16:39:02.608Z,98482.00
2022-08-20T16:41:54.924Z,98481.00
2022-08-20T16:44:50.603Z,98481.00
2022-08-20T16:47:41.216Z,98489.00
2022-08-20T16:50:57.711Z,98486.00
2022-08-20T16:53:45.502Z,98486.00
2022-08-20T16:56:43.878Z,98494.00
2022-08-20T16:59:33.352Z,98488.00
2022-08-20T17:02:22.649Z,98499.00
2022-08-20T17:05:10.359Z,98489.00
2022-08-20T17:08:04.439Z,98490.00
2022-08-20T17:11:12.517Z,98496.00
2022-08-20T17:14:18.662Z,98496.00
2022-08-20T17:17:06.276Z,98495.00
2022-08-20T17:20:01.691Z,98503.00
2022-08-20T17:22:54.730Z,98495.00
2022-08-20T17:25:42.648Z,98501.00
2022-08-20T17:28:35.347Z,98504.00
2022-08-20T17:31:41.322Z,98501.00
2022-08-20T17:34:42.363Z,98505.00
2022-08-20T17:37:35.866Z,98501.00
2022-08-20T17:40:38.616Z,98503.00
2022-08-20T17:43:33.316Z,98507.00
2022-08-20T17:46:21.205Z,98514.00
2022-08-20T17:49:15.127Z,98513.00
2022-08-20T17:52:11.862Z,98518.00
2022-08-20T17:55:01.861Z,98520.00
2022-08-20T17:57:56.294Z,98518.00
2022-08-20T18:00:44.807Z,98522.00
2022-08-20T18:03:32.337Z,98524.00
2022-08-20T18:06:44.541Z,98524.00
2022-08-20T18:09:48.487Z,98529.00
2022-08-20T18:13:16.368Z,98534.00
2022-08-20T18:16:06.121Z,98535.00
2022-08-20T18:19:15.168Z,98541.00
2022-08-20T18:22:24.872Z,98538.00
2022-08-20T18:25:38.958Z,98541.00
2022-08-20T18:29:11.421Z,98550.00
2022-08-20T18:32:05.812Z,98540.00
2022-08-20T18:34:53.797Z,98550.00
2022-08-20T18:37:41.821Z,98553.00
2022-08-20T18:40:33.570Z,98558.00
2022-08-20T18:43:31.576Z,98552.00
2022-08-20T18:46:23.801Z,98561.00
2022-08-20T18:49:13.576Z,98557.00
2022-08-20T18:52:26.443Z,98558.00
2022-08-20T18:55:42.451Z,98564.00
2022-08-20T18:58:57.819Z,98567.00
2022-08-20T19:01:49.002Z,98565.00
2022-08-20T19:04:38.553Z,98568.00
2022-08-20T19:07:48.997Z,98556.00
2022-08-20T19:11:06.986Z,98555.00
2022-08-20T19:14:23.681Z,98551.00
2022-08-20T19:17:20.131Z,98559.00
2022-08-20T19:20:19.841Z,98565.00
2022-08-20T19:23:15.597Z,98556.00
2022-08-20T19:26:07.256Z,98551.00
2022-08-20T19:29:19.896Z,98554.00
2022-08-20T19:32:16.361Z,98549.00
2022-08-20T19:35:08.124Z,98556.00
2022-08-20T19:37:55.812Z,98550.00
2022-08-20T19:40:46.232Z,98550.00
2022-08-20T19:43:43.352Z,98546.00
2022-08-20T19:46:46.145Z,98535.00
2022-08-20T19:50:22.048Z,98534.00
2022-08-20T19:53:30.522Z,98535.00
2022-08-20T19:56:28.787Z,98526.00
2022-08-20T19:59:22.897Z,98529.00
2022-08-20T20:02:20.650Z,98531.00
2022-08-20T20:05:10.767Z,98538.00
2022-08-20T20:08:03.104Z,98541.00
2022-08-20T20:11:00.736Z,98540.00
2022-08-20T20:13:48.327Z,98539.00
2022-08-20T20:16:38.478Z,98538.00
2022-08-20T20:19:27.477Z,98536.00
2022-08-20T20:22:26.330Z,98540.00
2022-08-20T20:25:18.972Z,98541.00
2022-08-20T20:28:25.086Z,98538.00
2022-08-20T20:31:27.719Z,98547.00
2022-08-20T20:34:18.547Z,98539.00
2022-08-20T20:37:42.601Z,98539.00
2022-08-20T20:40:47.664Z,98541.00
2022-08-20T20:43:43.128Z,98539.00
2022-08-20T20:46:35.539Z,98548.00
2022-08-20T20:49:26.417Z,98546.00
2022-08-20T20:52:35.770Z,98543.00
2022-08-20T20:55:32.731Z,98550.00
2022-08-20T20:58:20.247Z,98547.00
2022-08-20T21:01:11.209Z,98543.00
2022-08-20T21:03:58.962Z,98547.00
2022-08-20T21:06:46.807Z,98544.00
2022-08-20T21:09:38.372Z,98543.00
2022-08-20T21:12:25.991Z,98546.00
2022-08-20T21:15:14.317Z,98556.00
2022-08-20T21:18:05.934Z,98551.00
2022-08-20T21:20:53.472Z,98555.00
2022-08-20T21:23:41.685Z,98555.00
2022-08-20T21:26:29.709Z,98551.00
2022-08-20T21:29:30.459Z,98556.00
2022-08-20T21:32:20.226Z,98555.00
2022-08-20T21:35:10.357Z,98554.00
2022-08-20T21:37:57.854Z,98553.00
2022-08-20T21:40:45.412Z,98552.00
2022-08-20T21:43:33.707Z,98552.00
2022-08-20T21:46:24.808Z,98557.00
2022-08-20T21:49:13.692Z,98550.00
2022-08-20T21:52:02.008Z,98562.00
2022-08-20T21:54:49.808Z,98552.00
2022-08-20T21:57:38.287Z,98552.00
2022-08-20T22:00:52.898Z,98556.00
2022-08-20T22:03:41.594Z,98551.00
2022-08-20T22:06:29.628Z,98559.00
2022-08-20T22:09:17.277Z,98550.00
2022-08-20T22:12:17.153Z,98546.00
2022-08-20T22:15:05.837Z,98544.00
2022-08-20T22:17:53.337Z,98538.00
2022-08-20T22:20:42.218Z,98550.00
2022-08-20T22:23:29.807Z,98545.00
2022-08-20T22:26:20.295Z,98536.00
2022-08-20T22:29:10.711Z,98543.00
2022-08-20T22:31:58.678Z,98531.00
2022-08-20T22:34:46.607Z,98528.00
2022-08-20T22:37:34.486Z,98520.00
2022-08-20T22:40:23.381Z,98519.00
2022-08-20T22:43:11.441Z,98514.00
2022-08-20T22:46:01.677Z,98517.00
2022-08-20T22:48:49.281Z,98514.00
2022-08-20T22:51:41.096Z,98517.00
2022-08-20T22:54:29.291Z,98514.00
2022-08-20T22:57:17.021Z,98508.00
2022-08-20T23:00:13.976Z,98509.00
2022-08-20T23:03:03.397Z,98502.00
2022-08-20T23:05:50.960Z,98497.00
2022-08-20T23:08:40.636Z,98504.00
2022-08-20T23:11:28.155Z,98502.00
2022-08-20T23:14:15.971Z,98501.00
2022-08-20T23:17:14.872Z,98497.00
2022-08-20T23:20:04.676Z,98497.00
2022-08-20T23:22:54.767Z,98490.00
2022-08-20T23:25:42.652Z,98496.00
2022-08-20T23:28:30.541Z,98493.00
2022-08-20T23:31:18.636Z,98483.00
2022-08-20T23:34:06.236Z,98489.00
2022-08-20T23:36:56.277Z,98489.00
2022-08-20T23:39:46.529Z,98492.00
2022-08-20T23:42:34.476Z,98482.00
2022-08-20T23:45:22.423Z,98477.00
2022-08-20T23:48:10.095Z,98474.00
2022-08-20T23:50:57.721Z,98477.00
2022-08-20T23:53:45.321Z,98474.00
2022-08-20T23:56:32.991Z,98476.00
2022-08-20T23:59:20.551Z,98474.00
